This is the latest recevied weather packets stored in our database for station/object W2GLD-13. If no packets are shown the sender has not sent any weather packets the latest 10 day(s).
| Time | Temp. | Humidity | Pressure | Rain* | Wind** | Luminosity | Snow |
|---|---|---|---|---|---|---|---|
| 1777425305 | 13.89° C | 77% | 1010.4 hPa | 0 mm | - | - | - |
| 1777424405 | 15.56° C | 68% | 1010.5 hPa | 0 mm | - | - | - |
| 1777423505 | 15.56° C | 68% | 1010.5 hPa | 0 mm | - | - | - |
| 1777422606 | 15.56° C | 68% | 1010.5 hPa | 0 mm | - | - | - |
| 1777421706 | 15.56° C | 68% | 1010.5 hPa | 0 mm | - | - | - |
| 1777420806 | 16.11° C | 65% | 1010.4 hPa | 0 mm | - | - | - |
| 1777419906 | 16.11° C | 65% | 1010.4 hPa | 0 mm | - | - | - |
| 1777419005 | 16.11° C | 65% | 1010.4 hPa | 0 mm | - | - | - |
| 1777418105 | 16.11° C | 65% | 1010.4 hPa | 0 mm | - | - | - |
| 1777417205 | 16.11° C | 67% | 1009.6 hPa | 0 mm | - | - | - |
| 1777416305 | 16.11° C | 67% | 1009.6 hPa | 0 mm | - | - | - |
| 1777415405 | 16.11° C | 67% | 1009.6 hPa | 0 mm | - | - | - |
| 1777414505 | 16.11° C | 67% | 1009.6 hPa | 0 mm | - | - | - |
| 1777413606 | 15.56° C | 67% | 1009.8 hPa | 0 mm | - | - | - |
| 1777412706 | 15.56° C | 67% | 1009.8 hPa | 0 mm | - | - | - |
| 1777411806 | 15.56° C | 67% | 1009.8 hPa | 0 mm | - | - | - |
| 1777410906 | 15.56° C | 67% | 1009.8 hPa | 0 mm | - | - | - |
| 1777410005 | 15° C | 70% | 1009.7 hPa | 0 mm | - | - | - |
| 1777409105 | 15° C | 70% | 1009.7 hPa | 0 mm | - | - | - |
| 1777408205 | 15° C | 70% | 1009.7 hPa | 0 mm | - | - | - |
| 1777407305 | 15° C | 70% | 1009.7 hPa | 0 mm | - | - | - |
| 1777406405 | 13.89° C | 74% | 1010 hPa | 0 mm | - | - | - |
| 1777405506 | 13.89° C | 74% | 1010 hPa | 0 mm | - | - | - |
| 1777404606 | 13.89° C | 74% | 1010 hPa | 0 mm | - | - | - |
| 1777403706 | 13.89° C | 74% | 1010 hPa | 0 mm | - | - | - |
* Rain latest hour (hover to see other rain measurements)
** Current wind speed in m/s (hover to see current wind gust speed)